createdAt,value
2017-12-31T00:01:38.572Z,10.73
2017-12-31T00:04:04.351Z,13.80
2017-12-31T00:06:30.131Z,15.07
2017-12-31T00:08:55.884Z,11.77
2017-12-31T00:11:21.636Z,16.60
2017-12-31T00:13:47.395Z,15.80
2017-12-31T00:16:13.155Z,15.63
2017-12-31T00:18:38.926Z,18.30
2017-12-31T00:21:04.696Z,15.63
2017-12-31T00:23:30.463Z,15.43
2017-12-31T00:25:56.223Z,13.37
2017-12-31T00:28:21.998Z,12.03
2017-12-31T00:30:47.757Z,15.80
2017-12-31T00:33:13.526Z,11.03
2017-12-31T00:35:39.289Z,12.37
2017-12-31T00:38:05.071Z,12.67
2017-12-31T00:40:30.822Z,14.73
2017-12-31T00:42:56.566Z,15.60
2017-12-31T00:45:22.332Z,11.90
2017-12-31T00:47:48.086Z,11.37
2017-12-31T00:50:13.850Z,15.23
2017-12-31T00:52:39.602Z,12.50
2017-12-31T00:55:05.364Z,15.83
2017-12-31T00:57:31.124Z,18.80
2017-12-31T00:59:56.898Z,13.23
2017-12-31T01:02:22.655Z,14.90
2017-12-31T01:04:48.424Z,21.23
2017-12-31T01:07:14.185Z,10.97
2017-12-31T01:09:39.950Z,17.87
2017-12-31T01:12:05.710Z,17.83
2017-12-31T01:14:31.470Z,17.83
2017-12-31T01:16:57.238Z,20.83
2017-12-31T01:19:22.999Z,20.13
2017-12-31T01:21:48.750Z,19.93
2017-12-31T01:24:14.504Z,22.13
2017-12-31T01:26:40.254Z,25.97
2017-12-31T01:29:06.023Z,25.00
2017-12-31T01:31:31.778Z,28.83
2017-12-31T01:33:57.531Z,28.60
2017-12-31T01:36:23.297Z,33.87
2017-12-31T01:38:49.039Z,39.53
2017-12-31T01:41:14.794Z,34.93
2017-12-31T01:43:40.543Z,31.50
2017-12-31T01:46:06.315Z,29.47
2017-12-31T01:48:32.078Z,27.20
2017-12-31T01:50:57.842Z,35.43
2017-12-31T01:53:23.641Z,32.60
2017-12-31T01:55:49.416Z,36.93
2017-12-31T01:58:15.181Z,35.00
2017-12-31T02:00:40.967Z,40.57
2017-12-31T02:03:06.709Z,34.90
2017-12-31T02:05:32.458Z,41.97
2017-12-31T02:07:58.211Z,35.67
2017-12-31T02:10:23.963Z,33.73
2017-12-31T02:12:49.744Z,44.27
2017-12-31T02:15:15.489Z,40.07
2017-12-31T02:17:41.238Z,33.50
2017-12-31T02:20:06.993Z,46.40
2017-12-31T02:22:32.758Z,40.67
2017-12-31T02:24:58.510Z,48.60
2017-12-31T02:27:24.280Z,46.80
2017-12-31T02:29:50.038Z,47.00
2017-12-31T02:32:15.793Z,40.83
2017-12-31T02:34:41.554Z,55.43
2017-12-31T02:37:07.323Z,49.33
2017-12-31T02:39:33.098Z,51.60
2017-12-31T02:41:58.871Z,44.83
2017-12-31T02:44:24.642Z,44.17
2017-12-31T02:46:50.405Z,49.70
2017-12-31T02:49:16.166Z,46.40
2017-12-31T02:51:41.921Z,43.47
2017-12-31T02:54:07.694Z,44.20
2017-12-31T02:56:33.447Z,47.87
2017-12-31T02:58:59.206Z,46.90
2017-12-31T03:01:24.966Z,59.23
2017-12-31T03:03:50.727Z,55.17
2017-12-31T03:06:16.490Z,49.10
2017-12-31T03:08:42.249Z,57.87
2017-12-31T03:11:08.018Z,52.30
2017-12-31T03:13:33.778Z,54.73
2017-12-31T03:15:59.543Z,51.30
2017-12-31T03:18:25.328Z,54.93
2017-12-31T03:20:51.091Z,52.03
2017-12-31T03:23:16.842Z,60.50
2017-12-31T03:25:42.614Z,65.17
2017-12-31T03:28:08.375Z,60.80
2017-12-31T03:30:34.147Z,45.00
2017-12-31T03:32:59.906Z,68.70
2017-12-31T03:35:25.670Z,50.87
2017-12-31T03:37:52.243Z,46.90
2017-12-31T03:40:17.995Z,63.40
2017-12-31T03:42:43.759Z,58.60
2017-12-31T03:45:09.534Z,56.43
2017-12-31T03:47:35.299Z,56.20
2017-12-31T03:50:01.071Z,49.90
2017-12-31T03:52:26.834Z,64.20
2017-12-31T03:54:52.608Z,57.87
2017-12-31T03:57:18.366Z,58.53
2017-12-31T03:59:44.143Z,57.80
2017-12-31T04:02:09.891Z,44.07
2017-12-31T04:04:35.669Z,53.57
2017-12-31T04:07:01.417Z,51.50
2017-12-31T04:09:27.179Z,61.60
2017-12-31T04:11:52.931Z,45.40
2017-12-31T04:14:18.684Z,56.70
2017-12-31T04:16:44.454Z,48.00
2017-12-31T04:19:10.217Z,52.90
2017-12-31T04:21:35.950Z,51.43
2017-12-31T04:24:01.718Z,54.43
2017-12-31T04:26:27.467Z,53.23
2017-12-31T04:28:53.239Z,56.87
2017-12-31T04:31:18.993Z,49.40
2017-12-31T04:33:44.762Z,45.90
2017-12-31T04:36:10.521Z,44.07
2017-12-31T04:38:36.285Z,48.30
2017-12-31T04:41:02.051Z,53.13
2017-12-31T04:43:27.819Z,41.97
2017-12-31T04:45:53.584Z,53.70
2017-12-31T04:48:19.334Z,50.30
2017-12-31T04:50:45.082Z,45.50
2017-12-31T04:53:10.815Z,41.37
2017-12-31T04:55:36.575Z,41.83
2017-12-31T04:58:02.324Z,49.57
2017-12-31T05:00:28.070Z,49.90
2017-12-31T05:02:53.800Z,38.13
2017-12-31T05:05:19.547Z,48.93
2017-12-31T05:07:45.299Z,32.20
2017-12-31T05:10:11.054Z,41.07
2017-12-31T05:12:36.797Z,35.97
2017-12-31T05:15:02.544Z,40.97
2017-12-31T05:17:28.284Z,43.27
2017-12-31T05:19:54.035Z,38.93
2017-12-31T05:24:52.234Z,34.22
2017-12-31T05:27:17.979Z,29.13
2017-12-31T05:29:43.715Z,36.77
2017-12-31T05:32:09.479Z,37.03
2017-12-31T05:34:35.229Z,31.17
2017-12-31T05:37:00.987Z,31.10
2017-12-31T05:39:26.743Z,28.47
2017-12-31T05:41:52.503Z,35.50
2017-12-31T05:44:18.251Z,35.67
2017-12-31T05:46:44.020Z,27.67
2017-12-31T05:49:09.766Z,35.37
2017-12-31T05:51:35.512Z,29.93
2017-12-31T05:54:01.254Z,25.70
2017-12-31T05:56:27.006Z,33.13
2017-12-31T05:58:52.755Z,37.93
2017-12-31T06:01:18.526Z,35.27
2017-12-31T06:03:44.271Z,31.70
2017-12-31T06:06:10.006Z,29.13
2017-12-31T06:08:35.768Z,26.53
2017-12-31T06:11:01.498Z,44.07
2017-12-31T06:13:27.235Z,35.97
2017-12-31T06:15:52.986Z,28.47
2017-12-31T06:18:18.750Z,33.93
2017-12-31T06:20:44.507Z,27.30
2017-12-31T06:23:10.263Z,32.63
2017-12-31T06:25:36.016Z,36.43
2017-12-31T06:28:01.767Z,28.97
2017-12-31T06:30:27.510Z,39.37
2017-12-31T06:32:53.259Z,32.70
2017-12-31T06:35:18.996Z,28.37
2017-12-31T06:37:44.756Z,24.23
2017-12-31T06:40:10.508Z,24.80
2017-12-31T06:42:36.267Z,32.27
2017-12-31T06:45:02.009Z,29.43
2017-12-31T06:47:27.763Z,34.33
2017-12-31T06:49:53.528Z,28.77
2017-12-31T06:52:19.282Z,31.27
2017-12-31T06:54:45.054Z,31.67
2017-12-31T06:57:10.802Z,35.77
2017-12-31T06:59:36.567Z,28.73
2017-12-31T07:02:02.317Z,26.40
2017-12-31T07:04:28.066Z,28.77
2017-12-31T07:06:53.819Z,33.87
2017-12-31T07:09:19.595Z,41.23
2017-12-31T07:11:45.355Z,36.33
2017-12-31T07:14:11.107Z,33.83
2017-12-31T07:16:36.852Z,34.57
2017-12-31T07:19:02.615Z,38.17
2017-12-31T07:21:28.374Z,35.03
2017-12-31T07:23:54.130Z,30.97
2017-12-31T07:26:19.902Z,39.50
2017-12-31T07:28:45.675Z,29.87
2017-12-31T07:31:11.430Z,28.77
2017-12-31T07:33:37.191Z,31.03
2017-12-31T07:36:02.955Z,28.87
2017-12-31T07:38:28.692Z,30.20
2017-12-31T07:40:54.451Z,36.90
2017-12-31T07:43:20.203Z,23.37
2017-12-31T07:45:45.959Z,27.27
2017-12-31T07:48:11.756Z,25.83
2017-12-31T07:50:37.494Z,34.73
2017-12-31T07:53:03.242Z,27.27
2017-12-31T07:55:29.015Z,33.50
2017-12-31T07:57:54.782Z,32.93
2017-12-31T08:00:20.554Z,36.83
2017-12-31T08:02:46.319Z,30.90
2017-12-31T08:05:12.083Z,29.87
2017-12-31T08:07:37.839Z,39.60
2017-12-31T08:10:03.600Z,37.73
2017-12-31T08:12:29.355Z,44.80
2017-12-31T08:14:55.120Z,31.37
2017-12-31T08:17:20.878Z,32.77
2017-12-31T08:19:46.660Z,37.00
2017-12-31T08:22:12.411Z,35.03
2017-12-31T08:24:38.152Z,36.47
2017-12-31T08:27:03.907Z,31.90
2017-12-31T08:29:29.663Z,33.37
2017-12-31T08:31:55.831Z,38.67
2017-12-31T08:34:21.571Z,35.65
2017-12-31T08:36:47.346Z,37.30
2017-12-31T08:39:13.100Z,33.17
2017-12-31T08:41:38.867Z,44.23
2017-12-31T08:44:04.625Z,37.53
2017-12-31T08:46:30.375Z,45.07
2017-12-31T08:48:56.132Z,40.90
2017-12-31T08:51:21.901Z,41.73
2017-12-31T08:53:48.381Z,40.87
2017-12-31T08:56:14.151Z,49.63
2017-12-31T08:58:39.899Z,49.57
2017-12-31T09:01:05.661Z,47.33
2017-12-31T09:03:31.402Z,52.50
2017-12-31T09:05:57.142Z,48.30
2017-12-31T09:08:22.903Z,53.87
2017-12-31T09:10:48.667Z,43.40
2017-12-31T09:13:14.489Z,43.90
2017-12-31T09:15:40.226Z,42.30
2017-12-31T09:18:05.979Z,52.20
2017-12-31T09:20:31.719Z,55.97
2017-12-31T09:22:57.474Z,43.30
2017-12-31T09:25:23.219Z,39.30
2017-12-31T09:27:48.975Z,39.43
2017-12-31T09:30:14.726Z,46.93
2017-12-31T09:32:40.474Z,42.17
2017-12-31T09:35:06.224Z,37.47
2017-12-31T09:37:31.968Z,41.93
2017-12-31T09:39:57.714Z,37.93
2017-12-31T09:42:23.467Z,37.80
2017-12-31T09:44:49.208Z,37.57
2017-12-31T09:47:14.991Z,36.97
2017-12-31T09:49:40.742Z,34.23
2017-12-31T09:52:06.611Z,37.13
2017-12-31T09:54:33.385Z,33.97
2017-12-31T09:56:59.249Z,39.67
2017-12-31T09:59:25.003Z,39.37
2017-12-31T10:01:50.739Z,39.97
2017-12-31T10:04:16.491Z,32.13
2017-12-31T10:06:42.218Z,36.27
2017-12-31T10:09:07.967Z,24.70
2017-12-31T10:11:33.726Z,27.37
2017-12-31T10:13:59.487Z,24.70
2017-12-31T10:16:25.239Z,27.33
2017-12-31T10:18:50.991Z,33.90
2017-12-31T10:21:16.742Z,35.33
2017-12-31T10:23:42.578Z,31.33
2017-12-31T10:26:08.404Z,36.50
2017-12-31T10:28:34.184Z,27.20
2017-12-31T10:30:59.926Z,28.40
2017-12-31T10:33:25.691Z,19.43
2017-12-31T10:35:51.471Z,19.40
2017-12-31T10:38:17.247Z,21.57
2017-12-31T10:40:42.994Z,24.00
2017-12-31T10:43:08.756Z,19.33
2017-12-31T10:45:34.514Z,21.43
2017-12-31T10:48:00.281Z,18.40
2017-12-31T10:50:26.055Z,20.67
2017-12-31T10:52:51.810Z,17.83
2017-12-31T10:55:19.249Z,20.50
2017-12-31T10:57:45.060Z,21.17
2017-12-31T11:00:10.814Z,22.97
2017-12-31T11:02:36.598Z,18.77
2017-12-31T11:05:02.328Z,15.53
2017-12-31T11:07:28.088Z,19.00
2017-12-31T11:09:53.860Z,19.23
2017-12-31T11:12:19.610Z,25.47
2017-12-31T11:14:45.362Z,20.63
2017-12-31T11:17:11.119Z,21.37
2017-12-31T11:19:36.879Z,19.27
2017-12-31T11:22:02.619Z,24.67
2017-12-31T11:24:28.384Z,33.27
2017-12-31T11:26:54.135Z,27.30
2017-12-31T11:29:19.887Z,30.00
2017-12-31T11:31:45.631Z,24.87
2017-12-31T11:34:11.391Z,30.17
2017-12-31T11:36:37.131Z,41.13
2017-12-31T11:39:02.892Z,38.53
2017-12-31T11:41:28.656Z,33.63
2017-12-31T11:43:54.404Z,31.63
2017-12-31T11:46:20.171Z,29.57
2017-12-31T11:48:52.847Z,37.27
2017-12-31T11:51:18.607Z,24.95
2017-12-31T11:53:44.367Z,26.57
2017-12-31T11:56:11.248Z,30.27
2017-12-31T11:58:36.998Z,23.60
2017-12-31T12:01:02.759Z,16.20
2017-12-31T12:03:28.507Z,13.60
2017-12-31T12:05:54.270Z,18.70
2017-12-31T12:08:21.457Z,18.73
2017-12-31T12:10:48.616Z,14.27
2017-12-31T12:13:16.025Z,12.80
2017-12-31T12:15:42.935Z,17.65
2017-12-31T12:18:08.671Z,19.17
2017-12-31T12:20:34.434Z,12.23
2017-12-31T12:23:00.178Z,14.00
2017-12-31T12:25:25.935Z,15.27
2017-12-31T12:27:51.821Z,16.30
2017-12-31T12:30:17.691Z,12.47
2017-12-31T12:32:43.511Z,12.27
2017-12-31T12:35:09.296Z,13.50
2017-12-31T12:37:35.058Z,14.33
2017-12-31T12:40:00.803Z,12.00
2017-12-31T12:42:26.554Z,11.77
2017-12-31T12:44:52.310Z,13.60
2017-12-31T12:47:18.092Z,11.70
2017-12-31T12:49:43.832Z,16.93
2017-12-31T12:52:09.610Z,15.73
2017-12-31T12:54:35.383Z,9.93
2017-12-31T12:57:01.155Z,16.77
2017-12-31T12:59:26.911Z,12.47
2017-12-31T13:01:52.671Z,11.90
2017-12-31T13:04:18.419Z,18.80
2017-12-31T13:06:44.171Z,13.67
2017-12-31T13:09:09.894Z,18.70
2017-12-31T13:11:35.676Z,11.87
2017-12-31T13:14:01.435Z,12.77
2017-12-31T13:16:27.183Z,15.03
2017-12-31T13:18:52.945Z,11.40
2017-12-31T13:21:18.690Z,17.53
2017-12-31T13:23:44.434Z,15.30
2017-12-31T13:26:10.183Z,18.97
2017-12-31T13:28:35.960Z,11.27
2017-12-31T13:31:01.710Z,17.50
2017-12-31T13:33:27.462Z,14.67
2017-12-31T13:35:53.214Z,18.90
2017-12-31T13:38:18.975Z,18.33
2017-12-31T13:40:44.713Z,18.33
2017-12-31T13:43:10.475Z,16.87
2017-12-31T13:45:36.210Z,18.77
2017-12-31T13:48:01.976Z,24.87
2017-12-31T13:50:27.722Z,16.97
2017-12-31T13:52:53.488Z,17.63
2017-12-31T13:55:19.237Z,25.57
2017-12-31T13:57:44.992Z,18.53
2017-12-31T14:00:10.740Z,21.10
2017-12-31T14:02:36.490Z,17.97
2017-12-31T14:05:02.243Z,22.57
2017-12-31T14:07:27.998Z,20.00
2017-12-31T14:09:53.755Z,29.93
2017-12-31T14:12:19.515Z,19.87
2017-12-31T14:14:45.279Z,23.13
2017-12-31T14:17:11.062Z,21.37
2017-12-31T14:19:36.815Z,20.63
2017-12-31T14:22:02.554Z,20.30
2017-12-31T14:24:28.315Z,18.37
2017-12-31T14:26:54.081Z,14.37
2017-12-31T14:29:19.835Z,19.77
2017-12-31T14:31:45.587Z,17.93
2017-12-31T14:34:11.357Z,22.43
2017-12-31T14:36:37.107Z,19.60
2017-12-31T14:39:02.884Z,19.67
2017-12-31T14:41:28.630Z,17.73
2017-12-31T14:43:54.403Z,16.47
2017-12-31T14:46:20.163Z,20.00
2017-12-31T14:48:45.952Z,23.03
2017-12-31T14:51:11.708Z,18.37
2017-12-31T14:53:37.461Z,16.50
2017-12-31T14:56:03.214Z,17.77
2017-12-31T14:58:28.945Z,20.93
2017-12-31T15:00:54.716Z,23.50
2017-12-31T15:03:20.478Z,23.80
2017-12-31T15:05:46.243Z,17.80
2017-12-31T15:08:11.987Z,15.37
2017-12-31T15:10:37.745Z,17.80
2017-12-31T15:13:03.495Z,18.63
2017-12-31T15:15:29.242Z,25.43
2017-12-31T15:17:54.990Z,123.10
2017-12-31T15:20:20.771Z,53.27
2017-12-31T15:22:46.531Z,12.83
2017-12-31T15:25:12.295Z,25.73
2017-12-31T15:27:38.030Z,34.90
2017-12-31T15:30:03.786Z,20.53
2017-12-31T15:32:29.556Z,25.93
2017-12-31T15:34:55.305Z,36.43
2017-12-31T15:37:21.085Z,23.50
2017-12-31T15:39:46.826Z,17.13
2017-12-31T15:42:13.625Z,12.87
2017-12-31T15:44:39.384Z,12.10
2017-12-31T15:47:05.142Z,7.97
2017-12-31T15:49:37.999Z,11.03
2017-12-31T15:52:03.761Z,4.50
2017-12-31T15:54:29.510Z,4.27
2017-12-31T15:56:55.287Z,8.57
2017-12-31T15:59:21.050Z,9.93
2017-12-31T16:01:46.803Z,7.30
2017-12-31T16:04:12.547Z,13.67
2017-12-31T16:06:38.303Z,20.73
2017-12-31T16:09:04.038Z,14.60
2017-12-31T16:11:29.811Z,14.07
2017-12-31T16:13:55.565Z,11.73
2017-12-31T16:16:21.315Z,12.20
2017-12-31T16:18:47.074Z,15.23
2017-12-31T16:21:12.819Z,16.20
2017-12-31T16:23:38.581Z,12.03
2017-12-31T16:26:04.323Z,11.77
2017-12-31T16:28:30.078Z,10.30
2017-12-31T16:30:55.819Z,15.53
2017-12-31T16:33:21.563Z,12.00
2017-12-31T16:35:47.307Z,15.57
2017-12-31T16:38:13.067Z,11.07
2017-12-31T16:40:38.818Z,13.30
2017-12-31T16:43:04.567Z,15.77
2017-12-31T16:45:30.312Z,14.93
2017-12-31T16:47:56.085Z,21.27
2017-12-31T16:50:21.832Z,34.67
2017-12-31T16:52:47.623Z,25.77
2017-12-31T16:55:13.366Z,24.30
2017-12-31T16:57:39.116Z,19.23
2017-12-31T17:00:04.854Z,64.73
2017-12-31T17:02:30.626Z,24.50
2017-12-31T17:04:56.368Z,19.60
2017-12-31T17:07:22.094Z,16.87
2017-12-31T17:09:47.859Z,18.00
2017-12-31T17:12:13.599Z,19.43
2017-12-31T17:14:39.343Z,15.13
2017-12-31T17:17:05.092Z,25.17
2017-12-31T17:19:30.846Z,30.10
2017-12-31T17:21:56.594Z,36.93
2017-12-31T17:24:22.352Z,19.80
2017-12-31T17:26:48.099Z,26.03
2017-12-31T17:29:13.875Z,25.10
2017-12-31T17:31:39.638Z,36.10
2017-12-31T17:34:05.403Z,27.57
2017-12-31T17:36:31.140Z,27.87
2017-12-31T17:38:56.894Z,23.80
2017-12-31T17:41:22.711Z,35.37
2017-12-31T17:43:48.459Z,32.73
2017-12-31T17:46:14.205Z,30.67
2017-12-31T17:48:39.996Z,27.20
2017-12-31T17:51:05.748Z,78.87
2017-12-31T17:53:31.507Z,38.37
2017-12-31T17:55:57.243Z,43.73
2017-12-31T17:58:22.996Z,57.47
2017-12-31T18:00:48.749Z,103.47
2017-12-31T18:03:14.527Z,70.07
2017-12-31T18:05:40.278Z,94.73
2017-12-31T18:08:06.019Z,64.50
2017-12-31T18:10:31.779Z,74.03
2017-12-31T18:12:57.525Z,103.70
2017-12-31T18:15:23.275Z,133.20
2017-12-31T18:17:49.046Z,70.30
2017-12-31T18:20:14.799Z,64.67
2017-12-31T18:22:40.547Z,83.67
2017-12-31T18:25:06.318Z,74.50
2017-12-31T18:27:32.072Z,97.53
2017-12-31T18:29:57.847Z,70.97
2017-12-31T18:32:23.614Z,71.23
2017-12-31T18:34:49.386Z,95.47
2017-12-31T18:37:15.148Z,79.93
2017-12-31T18:39:40.903Z,76.73
2017-12-31T18:42:06.651Z,61.17
2017-12-31T18:44:32.415Z,72.00
2017-12-31T18:46:58.175Z,89.03
2017-12-31T18:49:23.942Z,110.10
2017-12-31T18:51:49.702Z,157.37
2017-12-31T18:54:15.483Z,191.40
2017-12-31T18:56:41.251Z,244.83
2017-12-31T18:59:07.000Z,162.97
2017-12-31T19:01:32.755Z,164.93
2017-12-31T19:03:58.527Z,136.40
2017-12-31T19:06:24.274Z,148.70
2017-12-31T19:08:50.021Z,96.33
2017-12-31T19:11:15.770Z,80.90
2017-12-31T19:13:41.555Z,77.57
2017-12-31T19:16:07.305Z,85.90
2017-12-31T19:18:33.068Z,81.27
2017-12-31T19:20:58.883Z,92.97
2017-12-31T19:23:24.628Z,149.50
2017-12-31T19:25:50.382Z,149.63
2017-12-31T19:28:16.121Z,140.47
2017-12-31T19:30:41.878Z,137.37
2017-12-31T19:33:07.635Z,121.17
2017-12-31T19:35:33.387Z,118.40
2017-12-31T19:37:59.146Z,94.90
2017-12-31T19:40:24.891Z,93.07
2017-12-31T19:42:50.643Z,86.63
2017-12-31T19:45:16.390Z,88.87
2017-12-31T19:47:42.155Z,105.87
2017-12-31T19:50:07.900Z,91.37
2017-12-31T19:52:33.662Z,102.23
2017-12-31T19:54:59.404Z,105.07
2017-12-31T19:57:25.153Z,67.13
2017-12-31T19:59:50.894Z,100.27
2017-12-31T20:02:16.651Z,60.80
2017-12-31T20:04:42.398Z,82.23
2017-12-31T20:07:08.154Z,79.40
2017-12-31T20:09:33.905Z,83.10
2017-12-31T20:11:59.663Z,108.80
2017-12-31T20:14:25.410Z,98.53
2017-12-31T20:16:51.177Z,79.90
2017-12-31T20:19:16.922Z,77.53
2017-12-31T20:21:42.669Z,97.73
2017-12-31T20:24:08.411Z,68.00
2017-12-31T20:26:34.193Z,60.87
2017-12-31T20:28:59.949Z,63.23
2017-12-31T20:31:25.682Z,77.73
2017-12-31T20:33:51.421Z,124.10
2017-12-31T20:36:17.167Z,67.23
2017-12-31T20:38:42.931Z,69.70
2017-12-31T20:41:08.677Z,71.00
2017-12-31T20:43:34.432Z,99.97
2017-12-31T20:46:00.191Z,69.50
2017-12-31T20:48:25.967Z,67.60
2017-12-31T20:50:51.715Z,64.37
2017-12-31T20:53:17.471Z,75.30
2017-12-31T20:55:43.207Z,108.87
2017-12-31T20:58:08.973Z,59.00
2017-12-31T21:00:34.727Z,81.53
2017-12-31T21:03:00.486Z,68.43
2017-12-31T21:05:26.226Z,57.33
2017-12-31T21:07:51.975Z,58.33
2017-12-31T21:10:17.710Z,50.83
2017-12-31T21:12:43.488Z,71.07
2017-12-31T21:15:09.244Z,89.93
2017-12-31T21:17:34.991Z,69.57
2017-12-31T21:20:00.944Z,63.73
2017-12-31T21:22:26.691Z,75.97
2017-12-31T21:24:52.435Z,69.17
2017-12-31T21:27:18.179Z,67.27
2017-12-31T21:29:43.927Z,51.90
2017-12-31T21:32:09.658Z,54.10
2017-12-31T21:34:35.415Z,51.13
2017-12-31T21:37:01.176Z,43.83
2017-12-31T21:39:26.927Z,45.30
2017-12-31T21:41:52.675Z,55.80
2017-12-31T21:44:18.454Z,43.97
2017-12-31T21:46:44.195Z,40.60
2017-12-31T21:49:09.964Z,32.87
2017-12-31T21:51:35.716Z,69.60
2017-12-31T21:54:01.463Z,28.87
2017-12-31T21:56:27.251Z,34.77
2017-12-31T21:58:52.994Z,33.33
2017-12-31T22:01:18.755Z,34.37
2017-12-31T22:03:44.526Z,31.90
2017-12-31T22:06:10.270Z,36.90
2017-12-31T22:08:36.026Z,63.33
2017-12-31T22:11:01.823Z,68.50
2017-12-31T22:13:27.544Z,85.63
2017-12-31T22:15:53.304Z,77.23
2017-12-31T22:18:19.047Z,45.07
2017-12-31T22:20:44.807Z,41.83
2017-12-31T22:23:10.555Z,36.93
2017-12-31T22:25:36.315Z,34.00
2017-12-31T22:28:02.067Z,26.00
2017-12-31T22:30:27.828Z,40.20
2017-12-31T22:32:53.572Z,31.37
2017-12-31T22:35:19.348Z,42.50
2017-12-31T22:37:45.105Z,38.13
2017-12-31T22:40:10.859Z,40.13
2017-12-31T22:42:36.605Z,38.33
2017-12-31T22:45:02.383Z,31.87
2017-12-31T22:47:28.152Z,27.30
2017-12-31T22:49:53.907Z,26.13
2017-12-31T22:52:19.667Z,26.40
2017-12-31T22:54:45.406Z,32.97
2017-12-31T22:57:11.158Z,33.33
2017-12-31T22:59:36.902Z,23.50
2017-12-31T23:02:02.668Z,30.37
2017-12-31T23:04:28.419Z,80.50
2017-12-31T23:06:54.189Z,673.53
2017-12-31T23:09:19.940Z,626.83
2017-12-31T23:11:45.706Z,1135.80
2017-12-31T23:14:11.443Z,866.37
2017-12-31T23:16:37.203Z,786.87
2017-12-31T23:19:02.952Z,922.87
2017-12-31T23:21:28.742Z,612.57
2017-12-31T23:23:54.500Z,1169.47
2017-12-31T23:26:20.259Z,833.60
2017-12-31T23:28:46.003Z,636.73
2017-12-31T23:31:11.759Z,801.40
2017-12-31T23:33:37.500Z,595.93
2017-12-31T23:36:03.257Z,644.87
2017-12-31T23:38:29.012Z,672.87
2017-12-31T23:40:54.746Z,453.23
2017-12-31T23:43:20.499Z,553.83
2017-12-31T23:45:46.247Z,591.80
2017-12-31T23:48:12.027Z,323.17
2017-12-31T23:50:37.790Z,247.57
2017-12-31T23:53:03.562Z,216.93
2017-12-31T23:55:29.313Z,121.50
2017-12-31T23:57:55.075Z,99.57
